Time;durP1;ratioP1;P1;durP2;ratioP2;P2;SDS_P1;SDS_P2;PMS_P1;PMS_P2;Temp;Humidity;BMP_temperature;BMP_pressure;BME280_temperature;BME280_humidity;BME280_pressure;Samples;Min_cycle;Max_cycle;Signal;HPM_P1;HPM_P2
2022/09/03 00:01:07;;;;;;;10.52;5.75;;;;;;;;;;10398107;28;20025;-79
2022/09/03 00:06:07;;;;;;;12.15;6.70;;;;;;;;;;10397481;28;20064;-79
2022/09/03 00:11:12;;;;;;;10.10;5.57;;;;;;;;;;10397904;28;20700;-80
2022/09/03 00:16:16;;;;;;;10.45;6.20;;;;;;;;;;10397313;28;20044;-79
2022/09/03 00:21:17;;;;;;;8.85;5.55;;;;;;;;;;10398018;28;20582;-74
2022/09/03 00:26:24;;;;;;;16.50;8.15;;;;;;;;;;10397414;28;20109;-75
2022/09/03 00:31:27;;;;;;;11.02;6.28;;;;;;;;;;10397148;28;20075;-77
2022/09/03 00:36:32;;;;;;;10.45;6.13;;;;;;;;;;10404972;28;20166;-78
2022/09/03 00:41:37;;;;;;;12.93;6.28;;;;;;;;;;10405288;28;20029;-79
2022/09/03 00:47:17;;;;;;;12.30;6.50;;;;;;;;;;10408036;28;20347;-84
2022/09/03 00:52:22;;;;;;;10.77;6.15;;;;;;;;;;10252149;28;20440;-87
2022/09/03 00:57:42;;;;;;;11.95;6.45;;;;;;;;;;10359154;28;20033;-80
2022/09/03 01:02:50;;;;;;;13.25;7.63;;;;;;;;;;10400427;28;20499;-80
2022/09/03 01:08:14;;;;;;;13.07;6.75;;;;;;;;;;10405100;28;20555;-80
2022/09/03 01:13:24;;;;;;;12.75;6.50;;;;;;;;;;10403432;28;20035;-81
2022/09/03 01:18:31;;;;;;;11.70;6.32;;;;;;;;;;10403413;28;20118;-75
2022/09/03 01:23:50;;;;;;;11.85;7.25;;;;;;;;;;10402227;28;20041;-81
2022/09/03 01:29:04;;;;;;;10.13;5.60;;;;;;;;;;10403789;28;20017;-80
2022/09/03 01:34:10;;;;;;;10.85;6.65;;;;;;;;;;10411594;28;20148;-81
2022/09/03 01:39:23;;;;;;;10.57;6.97;;;;;;;;;;10402227;28;20036;-80
2022/09/03 01:44:32;;;;;;;10.52;5.82;;;;;;;;;;10398846;28;20017;-81
2022/09/03 01:49:42;;;;;;;15.05;6.10;;;;;;;;;;10397753;28;20025;-81
2022/09/03 01:55:01;;;;;;;9.88;6.03;;;;;;;;;;10399072;28;20035;-80
2022/09/03 02:00:06;;;;;;;12.07;6.57;;;;;;;;;;10402424;28;20033;-81
2022/09/03 02:05:13;;;;;;;10.88;6.35;;;;;;;;;;10402773;28;20024;-79
2022/09/03 02:10:16;;;;;;;10.60;5.97;;;;;;;;;;10402498;28;20017;-76
2022/09/03 02:15:18;;;;;;;10.45;6.30;;;;;;;;;;10401853;28;20028;-80
2022/09/03 02:20:20;;;;;;;10.13;6.05;;;;;;;;;;10403783;28;20033;-76
2022/09/03 02:25:22;;;;;;;11.85;6.30;;;;;;;;;;10402347;28;20017;-76
2022/09/03 02:30:22;;;;;;;10.65;6.13;;;;;;;;;;10401566;28;20028;-81
2022/09/03 02:35:23;;;;;;;10.53;6.50;;;;;;;;;;10401286;28;20055;-81
2022/09/03 02:40:23;;;;;;;10.47;6.70;;;;;;;;;;10401166;28;20029;-79
2022/09/03 02:45:26;;;;;;;9.77;6.43;;;;;;;;;;10401065;28;20541;-79
2022/09/03 02:50:26;;;;;;;12.73;6.40;;;;;;;;;;10395330;28;20029;-80
2022/09/03 02:55:26;;;;;;;10.93;6.47;;;;;;;;;;10399642;28;20086;-79
2022/09/03 03:00:30;;;;;;;11.05;6.55;;;;;;;;;;10400646;28;20068;-80
2022/09/03 03:05:47;;;;;;;14.85;6.18;;;;;;;;;;10404317;28;20025;-81
2022/09/03 03:10:50;;;;;;;12.77;6.55;;;;;;;;;;10404151;28;20100;-80
2022/09/03 03:15:54;;;;;;;9.30;6.13;;;;;;;;;;10403045;28;20017;-80
2022/09/03 03:20:54;;;;;;;11.18;6.80;;;;;;;;;;10401643;28;20021;-78
2022/09/03 03:25:59;;;;;;;12.27;7.03;;;;;;;;;;10402676;28;20017;-79
2022/09/03 03:31:06;;;;;;;12.20;6.97;;;;;;;;;;10402634;28;20056;-77
2022/09/03 03:36:07;;;;;;;12.93;7.07;;;;;;;;;;10399440;28;20057;-79
2022/09/03 03:41:08;;;;;;;21.83;7.50;;;;;;;;;;10401386;28;20021;-81
2022/09/03 03:46:09;;;;;;;17.90;7.73;;;;;;;;;;10401993;28;20025;-77
2022/09/03 03:51:09;;;;;;;12.23;6.60;;;;;;;;;;10399367;28;20021;-75
2022/09/03 03:56:11;;;;;;;16.23;6.50;;;;;;;;;;10400377;28;20021;-75
2022/09/03 04:01:13;;;;;;;14.38;6.70;;;;;;;;;;10399526;28;20403;-81
2022/09/03 04:06:15;;;;;;;15.00;6.78;;;;;;;;;;10410108;28;20017;-75
2022/09/03 04:11:16;;;;;;;10.15;6.03;;;;;;;;;;10414664;28;20029;-77
2022/09/03 04:16:25;;;;;;;9.77;6.07;;;;;;;;;;10412919;28;20029;-79
2022/09/03 04:21:27;;;;;;;13.43;6.50;;;;;;;;;;10412642;28;20651;-80
2022/09/03 04:26:30;;;;;;;13.57;6.32;;;;;;;;;;10413676;28;20112;-80
2022/09/03 04:31:30;;;;;;;13.75;6.82;;;;;;;;;;10396810;28;20018;-76
2022/09/03 04:36:30;;;;;;;12.97;7.20;;;;;;;;;;10413700;28;20481;-79
2022/09/03 04:41:31;;;;;;;15.60;7.23;;;;;;;;;;10411581;28;20033;-79
2022/09/03 04:46:32;;;;;;;10.70;6.73;;;;;;;;;;10413055;28;20260;-78
2022/09/03 04:51:32;;;;;;;17.77;7.22;;;;;;;;;;10411966;28;20035;-76
2022/09/03 04:56:33;;;;;;;9.00;5.40;;;;;;;;;;10411169;28;20243;-80
2022/09/03 05:01:37;;;;;;;14.27;6.65;;;;;;;;;;10412333;28;20035;-83
2022/09/03 05:06:38;;;;;;;9.13;5.68;;;;;;;;;;10411943;28;20021;-83
2022/09/03 05:11:38;;;;;;;10.45;5.97;;;;;;;;;;10411395;28;20024;-75
2022/09/03 05:16:38;;;;;;;11.05;5.78;;;;;;;;;;10410465;28;20522;-83
2022/09/03 05:21:38;;;;;;;10.85;5.30;;;;;;;;;;10404154;28;20017;-76
2022/09/03 05:26:39;;;;;;;15.60;6.53;;;;;;;;;;10404024;28;20469;-76
2022/09/03 05:31:39;;;;;;;10.50;6.20;;;;;;;;;;10403778;28;20163;-76
2022/09/03 05:36:39;;;;;;;10.05;5.65;;;;;;;;;;10404227;28;20476;-76
2022/09/03 05:41:40;;;;;;;10.20;5.43;;;;;;;;;;10395289;28;20021;-81
2022/09/03 05:46:40;;;;;;;10.48;6.45;;;;;;;;;;10397013;28;20064;-83
2022/09/03 05:51:41;;;;;;;11.43;5.50;;;;;;;;;;10414798;28;20009;-75
2022/09/03 05:56:41;;;;;;;15.48;6.72;;;;;;;;;;10403587;28;20028;-86
2022/09/03 06:01:42;;;;;;;10.20;5.53;;;;;;;;;;10401461;28;20022;-79
2022/09/03 06:06:43;;;;;;;12.38;5.43;;;;;;;;;;10400971;28;20017;-78
2022/09/03 06:11:44;;;;;;;9.35;5.30;;;;;;;;;;10401486;28;20091;-85
2022/09/03 06:16:48;;;;;;;11.35;5.00;;;;;;;;;;10408334;28;20021;-80
2022/09/03 06:21:48;;;;;;;10.63;5.10;;;;;;;;;;10400514;28;20013;-82
2022/09/03 06:26:49;;;;;;;16.60;5.63;;;;;;;;;;10401681;28;20020;-79
2022/09/03 06:31:50;;;;;;;7.03;4.63;;;;;;;;;;10418556;28;20018;-80
2022/09/03 06:36:50;;;;;;;8.65;4.88;;;;;;;;;;10402117;28;20115;-81
2022/09/03 06:41:50;;;;;;;7.93;5.00;;;;;;;;;;10389907;28;20021;-78
2022/09/03 06:46:52;;;;;;;8.70;4.73;;;;;;;;;;10396192;28;20017;-78
2022/09/03 06:51:52;;;;;;;11.60;5.80;;;;;;;;;;10400194;28;20013;-82
2022/09/03 06:56:52;;;;;;;7.80;4.63;;;;;;;;;;10369384;28;20022;-78
2022/09/03 07:01:53;;;;;;;13.55;6.10;;;;;;;;;;10389844;28;20094;-82
2022/09/03 07:06:54;;;;;;;15.30;5.63;;;;;;;;;;10394484;28;20037;-79
2022/09/03 07:11:54;;;;;;;9.20;5.95;;;;;;;;;;10385856;28;20140;-80
2022/09/03 07:16:55;;;;;;;8.70;5.40;;;;;;;;;;10382424;28;20033;-76
2022/09/03 07:21:55;;;;;;;7.10;5.40;;;;;;;;;;10372706;28;20659;-79
2022/09/03 07:26:56;;;;;;;8.30;5.05;;;;;;;;;;10382729;28;20022;-76
2022/09/03 07:31:57;;;;;;;6.40;5.03;;;;;;;;;;10381386;28;20496;-77
2022/09/03 07:36:57;;;;;;;7.37;4.23;;;;;;;;;;10363138;28;20046;-80
2022/09/03 07:41:58;;;;;;;11.98;5.32;;;;;;;;;;10369392;28;20099;-80
2022/09/03 07:46:59;;;;;;;23.83;7.53;;;;;;;;;;10404497;28;20029;-81
2022/09/03 07:52:01;;;;;;;7.88;5.15;;;;;;;;;;10392071;28;20017;-77
2022/09/03 07:57:02;;;;;;;11.43;4.43;;;;;;;;;;10391061;28;20032;-80
2022/09/03 08:02:04;;;;;;;9.37;3.93;;;;;;;;;;10392325;28;20115;-81
2022/09/03 08:07:05;;;;;;;4.78;3.63;;;;;;;;;;10390212;28;20121;-81
2022/09/03 08:12:05;;;;;;;8.30;3.60;;;;;;;;;;10383733;28;20014;-77
2022/09/03 08:17:06;;;;;;;9.60;4.82;;;;;;;;;;10362112;28;20029;-77
2022/09/03 08:22:07;;;;;;;14.18;5.13;;;;;;;;;;10376865;28;20022;-83
2022/09/03 08:27:07;;;;;;;11.20;4.07;;;;;;;;;;10382824;28;20022;-77
2022/09/03 08:32:07;;;;;;;10.35;3.97;;;;;;;;;;10387402;28;20458;-81
2022/09/03 08:37:09;;;;;;;6.95;4.00;;;;;;;;;;10398108;28;20577;-77
2022/09/03 08:42:36;;;;;;;10.50;4.85;;;;;;;;;;10399874;28;20041;-82
2022/09/03 08:47:40;;;;;;;7.45;4.05;;;;;;;;;;10393540;28;20033;-79
2022/09/03 08:52:45;;;;;;;5.72;3.78;;;;;;;;;;10403147;28;20502;-83
2022/09/03 08:57:47;;;;;;;5.35;4.28;;;;;;;;;;10403800;28;20025;-82
2022/09/03 09:02:54;;;;;;;7.53;4.57;;;;;;;;;;10407448;28;20372;-81
2022/09/03 09:08:20;;;;;;;5.80;4.32;;;;;;;;;;10404594;28;20084;-78
2022/09/03 09:13:24;;;;;;;9.63;5.55;;;;;;;;;;10401534;28;20094;-77
2022/09/03 09:18:38;;;;;;;8.38;5.57;;;;;;;;;;10406335;28;20025;-83
2022/09/03 09:23:48;;;;;;;7.10;4.50;;;;;;;;;;10404973;28;20494;-82
2022/09/03 09:28:53;;;;;;;6.32;4.70;;;;;;;;;;10406280;28;20092;-78
2022/09/03 09:33:53;;;;;;;6.28;4.13;;;;;;;;;;10404677;28;20670;-77
2022/09/03 09:38:55;;;;;;;8.77;4.30;;;;;;;;;;10403715;28;20043;-82
2022/09/03 09:44:00;;;;;;;6.97;4.25;;;;;;;;;;10404856;28;20036;-80
2022/09/03 09:49:01;;;;;;;5.55;4.32;;;;;;;;;;10403958;28;20021;-77
2022/09/03 09:54:03;;;;;;;4.18;3.47;;;;;;;;;;10403442;28;20029;-81
2022/09/03 09:59:05;;;;;;;4.93;3.42;;;;;;;;;;10406211;28;20044;-82
2022/09/03 10:04:29;;;;;;;6.40;4.68;;;;;;;;;;10403107;28;20116;-81
2022/09/03 10:09:30;;;;;;;5.35;3.63;;;;;;;;;;10403172;28;20010;-78
2022/09/03 10:14:57;;;;;;;8.20;3.50;;;;;;;;;;10403545;28;20468;-78
2022/09/03 10:20:26;;;;;;;4.27;3.43;;;;;;;;;;10374778;28;20041;-80
2022/09/03 10:25:52;;;;;;;4.63;2.95;;;;;;;;;;10407252;28;20036;-78
2022/09/03 10:30:58;;;;;;;3.00;2.38;;;;;;;;;;10394902;28;20063;-79
2022/09/03 10:36:18;;;;;;;3.97;2.38;;;;;;;;;;10401143;28;20175;-80
2022/09/03 10:41:22;;;;;;;2.60;2.40;;;;;;;;;;10398169;28;20033;-76
2022/09/03 10:46:26;;;;;;;6.10;2.28;;;;;;;;;;10400886;28;20089;-81
2022/09/03 10:51:32;;;;;;;8.18;2.78;;;;;;;;;;10401258;28;20025;-87
2022/09/03 10:56:38;;;;;;;3.40;2.80;;;;;;;;;;10377328;28;20028;-86
2022/09/03 11:01:50;;;;;;;3.53;2.97;;;;;;;;;;10378210;28;20017;-78
2022/09/03 11:06:56;;;;;;;6.80;2.65;;;;;;;;;;10384334;28;20083;-84
2022/09/03 11:11:59;;;;;;;6.70;3.15;;;;;;;;;;10403431;28;20108;-77
2022/09/03 11:17:07;;;;;;;3.22;2.70;;;;;;;;;;10399476;28;20037;-81
2022/09/03 11:22:09;;;;;;;7.07;3.08;;;;;;;;;;10400975;28;20486;-77
2022/09/03 11:27:30;;;;;;;4.20;3.13;;;;;;;;;;10401479;28;20029;-80
2022/09/03 11:32:49;;;;;;;6.35;3.47;;;;;;;;;;10399074;28;20056;-81
2022/09/03 11:37:54;;;;;;;3.78;3.22;;;;;;;;;;10399159;28;20049;-81
2022/09/03 11:43:04;;;;;;;3.40;2.88;;;;;;;;;;10405748;28;20022;-79
2022/09/03 11:48:37;;;;;;;4.60;3.03;;;;;;;;;;10399765;28;20132;-78
2022/09/03 11:53:37;;;;;;;6.50;3.35;;;;;;;;;;10366326;28;20143;-82
2022/09/03 11:58:39;;;;;;;4.60;3.33;;;;;;;;;;10382559;28;20132;-78
2022/09/03 12:03:44;;;;;;;6.10;3.40;;;;;;;;;;10386510;28;20507;-76
2022/09/03 12:08:45;;;;;;;5.88;3.20;;;;;;;;;;10390305;28;20021;-81
2022/09/03 12:14:03;;;;;;;4.80;3.67;;;;;;;;;;10391822;28;20024;-80
2022/09/03 12:19:06;;;;;;;7.10;4.60;;;;;;;;;;10384507;28;20025;-78
2022/09/03 12:24:10;;;;;;;3.83;3.03;;;;;;;;;;10383564;28;20502;-78
2022/09/03 12:29:25;;;;;;;3.75;2.75;;;;;;;;;;10391699;28;20450;-84
2022/09/03 12:34:26;;;;;;;5.20;3.60;;;;;;;;;;10393280;28;20041;-82
2022/09/03 12:39:27;;;;;;;3.78;2.75;;;;;;;;;;10390959;28;20021;-79
2022/09/03 12:44:30;;;;;;;5.10;3.92;;;;;;;;;;10378023;28;20133;-79
2022/09/03 12:49:34;;;;;;;5.45;3.97;;;;;;;;;;10397843;28;20163;-79
2022/09/03 12:54:38;;;;;;;6.25;3.95;;;;;;;;;;10393466;28;20036;-78
2022/09/03 12:59:38;;;;;;;6.95;4.43;;;;;;;;;;10396273;28;20025;-77
2022/09/03 13:04:39;;;;;;;8.70;3.70;;;;;;;;;;10389979;28;20018;-80
2022/09/03 13:09:39;;;;;;;4.65;3.63;;;;;;;;;;10398751;28;20037;-78
2022/09/03 13:14:41;;;;;;;4.93;3.47;;;;;;;;;;10390434;28;20034;-79
2022/09/03 13:19:58;;;;;;;4.45;3.08;;;;;;;;;;10393884;28;20530;-78
2022/09/03 13:25:17;;;;;;;4.57;2.67;;;;;;;;;;10392303;28;20036;-83
2022/09/03 13:30:22;;;;;;;4.05;3.05;;;;;;;;;;10396771;28;20037;-78
2022/09/03 13:35:41;;;;;;;6.60;3.47;;;;;;;;;;10393077;28;20508;-78
2022/09/03 13:40:48;;;;;;;3.30;2.55;;;;;;;;;;10399026;28;20075;-78
2022/09/03 13:46:02;;;;;;;6.43;3.90;;;;;;;;;;10389185;28;20022;-82
2022/09/03 13:51:28;;;;;;;8.48;3.00;;;;;;;;;;10396652;28;20479;-84
2022/09/03 13:56:41;;;;;;;3.88;2.30;;;;;;;;;;10358584;28;20120;-78
2022/09/03 14:01:42;;;;;;;2.72;2.05;;;;;;;;;;10396270;28;20025;-75
2022/09/03 14:06:51;;;;;;;3.47;2.40;;;;;;;;;;10396510;28;20067;-81
2022/09/03 14:11:55;;;;;;;4.60;2.80;;;;;;;;;;10392562;28;20611;-81
2022/09/03 14:17:01;;;;;;;4.57;2.53;;;;;;;;;;10390001;28;20415;-79
2022/09/03 14:22:08;;;;;;;3.42;2.35;;;;;;;;;;10392143;28;20033;-80
2022/09/03 14:27:09;;;;;;;6.45;3.17;;;;;;;;;;10399125;28;20022;-79
2022/09/03 14:32:15;;;;;;;4.57;2.85;;;;;;;;;;10384917;28;20033;-73
2022/09/03 14:37:28;;;;;;;5.32;2.55;;;;;;;;;;10395495;28;20064;-73
2022/09/03 14:42:31;;;;;;;5.40;2.80;;;;;;;;;;10397003;28;20025;-76
2022/09/03 14:47:41;;;;;;;4.13;3.20;;;;;;;;;;10389796;28;20021;-75
2022/09/03 14:53:01;;;;;;;6.05;2.92;;;;;;;;;;10392253;28;20025;-77
2022/09/03 14:58:08;;;;;;;5.75;3.47;;;;;;;;;;10390814;28;20098;-79
2022/09/03 15:03:11;;;;;;;6.50;3.05;;;;;;;;;;10372394;28;20551;-82
2022/09/03 15:08:22;;;;;;;4.38;2.75;;;;;;;;;;10388676;28;20033;-77
2022/09/03 15:13:41;;;;;;;5.93;3.40;;;;;;;;;;10369268;28;20080;-81
2022/09/03 15:19:00;;;;;;;4.85;3.20;;;;;;;;;;10371323;28;20034;-78
2022/09/03 15:24:07;;;;;;;6.35;2.83;;;;;;;;;;10385739;28;20021;-80
2022/09/03 15:29:10;;;;;;;3.83;3.10;;;;;;;;;;10372319;28;20021;-83
2022/09/03 15:34:26;;;;;;;4.40;3.25;;;;;;;;;;10369370;28;20478;-78
2022/09/03 15:39:26;;;;;;;5.00;3.00;;;;;;;;;;10381025;28;20144;-80
2022/09/03 15:44:34;;;;;;;5.00;3.58;;;;;;;;;;10389939;28;20481;-80
2022/09/03 15:49:58;;;;;;;4.80;3.55;;;;;;;;;;10389107;28;20036;-82
2022/09/03 15:55:02;;;;;;;6.25;3.88;;;;;;;;;;10374030;28;20038;-77
2022/09/03 16:00:20;;;;;;;4.55;3.50;;;;;;;;;;10382432;28;20025;-78
2022/09/03 16:05:38;;;;;;;5.35;4.57;;;;;;;;;;10368360;28;20034;-78
2022/09/03 16:10:49;;;;;;;6.03;4.50;;;;;;;;;;10373853;28;20033;-78
2022/09/03 16:15:59;;;;;;;8.23;5.30;;;;;;;;;;10383502;28;20041;-81
2022/09/03 16:21:18;;;;;;;7.78;5.35;;;;;;;;;;10382002;28;20060;-80
2022/09/03 16:26:25;;;;;;;7.57;5.03;;;;;;;;;;10386493;28;20025;-84
2022/09/03 16:31:32;;;;;;;7.28;5.32;;;;;;;;;;10385566;28;20034;-78
2022/09/03 16:36:44;;;;;;;7.95;5.93;;;;;;;;;;10380274;28;20077;-81
2022/09/03 16:41:48;;;;;;;9.13;5.15;;;;;;;;;;10382023;28;20435;-78
2022/09/03 16:47:06;;;;;;;8.10;5.30;;;;;;;;;;10379511;28;20100;-77
2022/09/03 16:52:25;;;;;;;11.55;5.40;;;;;;;;;;10380554;28;20176;-80
2022/09/03 16:57:44;;;;;;;9.50;5.85;;;;;;;;;;10389073;28;20029;-80
2022/09/03 17:03:00;;;;;;;9.75;5.40;;;;;;;;;;10391951;28;20116;-79
2022/09/03 17:08:19;;;;;;;11.10;6.30;;;;;;;;;;10371221;28;20442;-81
2022/09/03 17:13:38;;;;;;;11.77;6.20;;;;;;;;;;10386713;28;20606;-79
2022/09/03 17:18:44;;;;;;;9.45;5.82;;;;;;;;;;10398046;28;20067;-77
2022/09/03 17:23:58;;;;;;;11.90;6.45;;;;;;;;;;10378802;28;20041;-78
2022/09/03 17:28:58;;;;;;;8.60;6.25;;;;;;;;;;10393029;28;20025;-82
2022/09/03 17:34:23;;;;;;;11.63;6.13;;;;;;;;;;10396202;28;20057;-79
2022/09/03 17:39:42;;;;;;;8.18;5.57;;;;;;;;;;10385532;28;20033;-76
2022/09/03 17:45:01;;;;;;;10.57;6.25;;;;;;;;;;10396991;28;20053;-82
2022/09/03 17:50:05;;;;;;;8.35;6.80;;;;;;;;;;10392987;28;20021;-81
2022/09/03 17:55:11;;;;;;;8.93;6.80;;;;;;;;;;10394473;28;20022;-85
2022/09/03 18:00:21;;;;;;;9.80;6.82;;;;;;;;;;10386959;28;20502;-81
2022/09/03 18:05:24;;;;;;;8.43;6.57;;;;;;;;;;10387368;28;20411;-76
2022/09/03 18:10:52;;;;;;;12.23;8.05;;;;;;;;;;10388850;28;20025;-82
2022/09/03 18:16:11;;;;;;;9.03;6.90;;;;;;;;;;10357976;28;20458;-81
2022/09/03 20:15:10;;;;;;;17.15;9.70;;;;;;;;;;10389357;28;20033;-81
2022/09/03 20:20:16;;;;;;;14.65;9.93;;;;;;;;;;10400234;28;20362;-81
2022/09/03 20:25:28;;;;;;;16.92;10.35;;;;;;;;;;10399568;28;20096;-83
2022/09/03 20:30:33;;;;;;;17.58;10.20;;;;;;;;;;10390206;28;20087;-80
2022/09/03 20:35:33;;;;;;;15.15;8.70;;;;;;;;;;10382279;28;20046;-76
2022/09/03 20:40:45;;;;;;;18.92;9.85;;;;;;;;;;10396778;28;20420;-77
2022/09/03 20:46:06;;;;;;;18.38;11.15;;;;;;;;;;10398630;28;20112;-77
2022/09/03 20:51:21;;;;;;;19.95;11.75;;;;;;;;;;10404659;28;20021;-82
2022/09/03 20:56:25;;;;;;;20.20;10.75;;;;;;;;;;10390079;28;20029;-79
2022/09/03 21:01:25;;;;;;;17.63;10.13;;;;;;;;;;10383765;28;20035;-82
2022/09/03 21:06:32;;;;;;;24.58;10.18;;;;;;;;;;10402402;28;20503;-77
2022/09/03 21:11:41;;;;;;;26.13;11.27;;;;;;;;;;10405426;28;20030;-77
2022/09/03 21:16:50;;;;;;;19.23;10.45;;;;;;;;;;10399917;28;20091;-80
2022/09/03 21:22:11;;;;;;;18.58;10.80;;;;;;;;;;10402345;28;20741;-77
2022/09/03 21:27:14;;;;;;;14.45;9.20;;;;;;;;;;10369440;28;20430;-80
2022/09/03 21:32:20;;;;;;;23.13;10.02;;;;;;;;;;10391252;28;20104;-80
2022/09/03 21:37:22;;;;;;;17.15;10.18;;;;;;;;;;10392252;28;20137;-77
2022/09/03 21:42:41;;;;;;;17.73;10.02;;;;;;;;;;10395040;28;20794;-77
2022/09/03 21:47:44;;;;;;;21.98;10.85;;;;;;;;;;10383666;28;20505;-81
2022/09/03 21:52:50;;;;;;;14.57;9.20;;;;;;;;;;10387162;28;20029;-81
2022/09/03 21:57:59;;;;;;;20.85;9.80;;;;;;;;;;10397385;28;20178;-81
2022/09/03 22:02:59;;;;;;;17.75;9.90;;;;;;;;;;10395683;28;20504;-77
2022/09/03 22:08:01;;;;;;;14.48;9.35;;;;;;;;;;10387491;28;20030;-79
2022/09/03 22:13:08;;;;;;;18.75;10.05;;;;;;;;;;10379759;28;20050;-77
2022/09/03 22:18:22;;;;;;;15.50;10.68;;;;;;;;;;10375774;28;20451;-76
2022/09/03 22:23:27;;;;;;;16.05;9.88;;;;;;;;;;10363792;28;20635;-76
2022/09/03 22:28:32;;;;;;;17.88;10.18;;;;;;;;;;10380382;28;20060;-80
2022/09/03 22:33:44;;;;;;;18.90;10.68;;;;;;;;;;10390930;28;20184;-82
2022/09/03 22:38:54;;;;;;;20.38;10.52;;;;;;;;;;10397590;28;20059;-79
2022/09/03 22:44:03;;;;;;;21.13;11.38;;;;;;;;;;10393320;28;20104;-81
2022/09/03 22:49:06;;;;;;;14.98;10.10;;;;;;;;;;10390814;28;20167;-76
2022/09/03 22:54:14;;;;;;;21.30;10.20;;;;;;;;;;10387848;28;20025;-75
2022/09/03 22:59:18;;;;;;;21.97;10.83;;;;;;;;;;10393591;28;20044;-77
2022/09/03 23:04:24;;;;;;;17.90;10.93;;;;;;;;;;10394234;28;20030;-79
2022/09/03 23:09:27;;;;;;;17.35;10.25;;;;;;;;;;10387154;28;20121;-81
2022/09/03 23:14:33;;;;;;;21.02;12.65;;;;;;;;;;10388505;28;20056;-80
2022/09/03 23:19:39;;;;;;;19.27;11.65;;;;;;;;;;10387624;28;20490;-76
2022/09/03 23:24:42;;;;;;;18.27;9.57;;;;;;;;;;10389163;28;20029;-79
2022/09/03 23:29:46;;;;;;;19.23;10.35;;;;;;;;;;10398245;28;20400;-81
2022/09/03 23:34:46;;;;;;;18.27;10.20;;;;;;;;;;10397383;28;20053;-80
2022/09/03 23:39:49;;;;;;;18.58;9.77;;;;;;;;;;10398094;28;20037;-77
2022/09/03 23:44:52;;;;;;;17.20;10.77;;;;;;;;;;10396294;28;20040;-76
2022/09/03 23:50:01;;;;;;;15.82;10.02;;;;;;;;;;10399572;28;20104;-80
2022/09/03 23:55:04;;;;;;;19.00;9.82;;;;;;;;;;10398521;28;20080;-80
